< < Back
Terminal Aerodrome Forecast


Current Version              Previous Versions:   1  2  3  4  5  6  7  8  9  

Terminal Aerodrome Forecast

585
FTUS42 KCHS 272322 CCA
TAFCHS
TAF COR
KCHS 272322Z 2800/2824 14005KT P6SM SCT020
     FM281800 14011KT P6SM SCT040=

Latest METAR

821
SAUS80 KWBC 280600 RRA
MTRCHS
METAR KCHS 280556Z 00000KT 10SM CLR 21/19 A3020 RMK AO2 SLP225 T02110194
10250 20211 58005


USA.gov is the U.S. government's official web portal to all federal, state and local government web resources and services.